Louis Armstrong New Orleans International Airport
KMSY : now visible

Airfield :











YOU CAN JOIN US ON...

 
LOGIN :

Register | Disclaimer

   EN    FR    IT 

 









Legend :    VFR   Marginal VFR   IFR   Intensive IFR   Very Intensive IFR
Visi :
Ceiling :
>= 8 km
>= 3000ft
5 to 8 km
1000 to 3000 ft
1500m to 5 km
500 to 1000 ft
800 to 1500m
200 to 500 ft
< 800m
< 200 ft
Symbols :   Thunderstorms  Fog  Heavy snow  Heavy precipitations  Wind > 20 kt






- Airport Elevation : 4 ft
- IATA code : MSY


KMSY - Louis Armstrong New Orleans International

CURRENT METAR :
  • 272253Z 12006KT 10SM SCT013 BKN043 BKN250 27/24 A2991 RMK AO2 RAB06E33 SLP131 P0001 T02670244 $

EXPIRED METARs :
  • 272239Z 13007KT 10SM SCT013 BKN043 BKN250 27/24 A2991 RMK AO2 RAB06E33 P0001 T02670244 $
  • 272205Z 13008KT 9SM BKN013 BKN019 OVC080 28/24 A2991 RMK AO2 T02780244 $
  • 272153Z 10005KT 10SM BKN015 BKN022 BKN250 28/24 A2991 RMK AO2 SLP132 T02780244 $
  • 272052Z 10009KT 10SM BKN015 BKN021 BKN250 28/24 A2991 RMK AO2 RAE39 SLP132 P0001 60001 T02830244 58012 $
  • 272038Z COR 09008KT 10SM BKN015 BKN021 BKN250 28/25 A2992 RMK AO2 RAE39 P0001 T02780250 $
  • 272009Z 09007KT 4SM -RA BR SCT018 BKN034 OVC055 27/24 A2993 RMK AO2 P0001 T02670244 $
  • 272001Z 10010KT 2 1/2SM -RA SCT017 BKN032 OVC050 27/24 A2993 RMK AO2 P0000 T02720244
  • 271953Z 09010KT 9SM -RA BKN017 BKN033 BKN041 BKN250 28/24 A2993 RMK AO2 RAE1855B30 SLP138 P0000 T02780239

TAF KMSY
Valid from the 27 at 18:00 until the 29 at 00:00 UTC


271735Z 2718/2824 08008KT P6SM VCSH BKN015 BKN070
FM280200 09006KT P6SM SHRA OVC025
FM280500 10006KT P6SM SHRA OVC010
FM281500 12015G25KT 6SM SHRA BR OVC015
FM282000 12025G35KT 4SM RA BR OVC010
TEMPO 2820/2824 1SM TSRA OVC005CB
KZHU FIR / North America



MET'MAP, your aeronautical weather chart ! - Copyright ORBIFLY December 2007 - Disclaimer

ORBIFLY MET'MAP TEAM :

Programming & Development : Alexandra Zaïnal
Concept & original design : Baudouin d'Aumeries
Assistance for programming : Marc-Olivier Méhu
Technical & hardware support : Manuel Goepfert

Contact : metmap@orbifly.com




SOURCES & CREDITS :

   NOAA       Earth
Advisory